.
WxDataArchive / Data Records for 2014-11-23
2014-11-22 November 2014 2014-11-24

Data Records for Sunday, 23 November 2014

Time	Temp	Chill	HIndex	Humid	Dewpt	 Wind 	HiWind	WindDir	Rain 	Barom
-----	----	-----	------	-----	-----	------	------	-------	-----	-----
00:00	51.3	51.3	51.3	71	42.2	1	3	248	0.00	29.962 
00:05	51.1	51.1	51.1	71	42.0	1	5	248	0.00	29.962 
00:10	51.0	51.0	51.0	71	41.9	0	3	270	0.00	29.962 
00:15	50.8	50.8	50.8	71	41.7	0	3	270	0.00	29.959 
00:20	50.8	50.8	50.8	71	41.7	1	4	270	0.00	29.959 
00:25	50.7	50.7	50.7	71	41.6	0	4	270	0.00	29.959 
00:30	50.5	50.5	50.5	72	41.8	0	2	270	0.00	29.950 
00:35	50.2	50.2	50.2	72	41.5	0	1	270	0.00	29.950 
00:40	49.9	49.9	49.9	73	41.6	0	1	270	0.00	29.950 
00:45	49.8	49.8	49.8	73	41.5	0	2	270	0.00	29.947 
00:50	49.6	49.6	49.6	73	41.3	0	2	270	0.00	29.947 
00:55	49.5	49.5	49.5	73	41.2	0	3	270	0.00	29.947 
01:00	49.4	49.4	49.4	74	41.5	0	2	270	0.00	29.948 
01:05	49.4	49.4	49.4	74	41.5	0	4	270	0.00	29.948 
01:10	49.2	49.2	49.2	74	41.3	0	3	270	0.00	29.948 
01:15	49.2	49.2	49.2	75	41.6	0	2	270	0.00	29.946 
01:20	49.1	49.1	49.1	76	41.9	0	2	270	0.00	29.946 
01:25	48.9	48.9	48.9	77	42.0	0	2	270	0.00	29.946 
01:30	48.8	48.8	48.8	78	42.2	0	2	270	0.00	29.945 
01:35	48.5	48.5	48.5	79	42.3	0	2	270	0.00	29.945 
01:40	48.2	48.2	48.2	80	42.3	0	1	270	0.00	29.945 
01:45	48.0	48.0	48.0	81	42.5	0	1	270	0.01	29.945 
01:50	47.7	47.7	47.7	82	42.5	0	1	270	0.00	29.945 
01:55	47.4	47.4	47.4	83	42.5	0	2	270	0.00	29.945 
02:00	47.3	47.3	47.3	84	42.7	0	1	270	0.00	29.945 
02:05	47.0	47.0	47.0	84	42.4	0	3	270	0.01	29.945 
02:10	46.8	46.8	46.8	85	42.5	0	2	270	0.00	29.945 
02:15	46.7	46.7	46.7	85	42.4	0	4	270	0.00	29.945 
02:20	46.7	46.7	46.7	86	42.7	0	2	248	0.01	29.945 
02:25	46.7	46.7	46.7	87	43.0	0	3	248	0.00	29.945 
02:30	46.5	46.5	46.5	87	42.8	0	4	248	0.00	29.947 
02:35	46.5	46.5	46.5	88	43.1	0	2	248	0.01	29.947 
02:40	46.5	46.5	46.5	88	43.1	0	2	248	0.00	29.947 
02:45	46.4	46.4	46.4	88	43.0	0	1	248	0.00	29.946 
02:50	46.4	46.4	46.4	89	43.3	0	3	248	0.00	29.946 
02:55	46.2	46.2	46.2	89	43.1	0	1	248	0.00	29.946 
03:00	46.2	46.2	46.2	89	43.1	0	2	248	0.00	29.944 
03:05	46.2	46.2	46.2	89	43.1	0	1	248	0.00	29.944 
03:10	46.2	46.2	46.2	89	43.1	0	2	248	0.00	29.944 
03:15	46.1	46.1	46.1	89	43.0	0	1	248	0.00	29.936 
03:20	46.1	46.1	46.1	90	43.3	0	1	248	0.01	29.936 
03:25	46.1	46.1	46.1	89	43.0	0	1	248	0.00	29.936 
03:30	46.0	46.0	46.0	90	43.2	0	1	248	0.00	29.932 
03:35	46.0	46.0	46.0	90	43.2	0	1	248	0.00	29.932 
03:40	46.0	46.0	46.0	90	43.2	0	3	248	0.00	29.932 
03:45	46.0	46.0	46.0	90	43.2	0	1	248	0.00	29.923 
03:50	45.8	45.8	45.8	90	43.0	0	1	248	0.00	29.923 
03:55	45.8	45.8	45.8	90	43.0	0	0	---	0.00	29.923 
04:00	45.7	45.7	45.7	90	42.9	0	0	---	0.00	29.921 
04:05	45.7	45.7	45.7	90	42.9	0	1	248	0.00	29.921 
04:10	45.7	45.7	45.7	90	42.9	0	1	248	0.00	29.921 
04:15	45.5	45.5	45.5	90	42.7	0	0	---	0.00	29.924 
04:20	45.5	45.5	45.5	90	42.7	0	0	---	0.00	29.924 
04:25	45.5	45.5	45.5	90	42.7	0	1	248	0.00	29.924 
04:30	45.5	45.5	45.5	90	42.7	0	0	---	0.00	29.918 
04:35	45.5	45.5	45.5	90	42.7	0	1	248	0.00	29.918 
04:40	45.4	45.4	45.4	91	42.9	0	1	248	0.00	29.918 
04:45	45.4	45.4	45.4	91	42.9	0	0	---	0.00	29.923 
04:50	45.4	45.4	45.4	91	42.9	0	1	248	0.00	29.923 
04:55	45.4	45.4	45.4	91	42.9	0	1	248	0.00	29.923 
05:00	45.5	45.5	45.5	91	43.0	0	2	248	0.00	29.917 
05:05	45.5	45.5	45.5	91	43.0	0	1	248	0.00	29.917 
05:10	45.5	45.5	45.5	91	43.0	0	1	248	0.00	29.917 
05:15	45.4	45.4	45.4	91	42.9	0	1	248	0.00	29.915 
05:20	45.4	45.4	45.4	91	42.9	0	0	---	0.00	29.915 
05:25	45.4	45.4	45.4	91	42.9	0	1	248	0.00	29.915 
05:30	45.4	45.4	45.4	91	42.9	0	0	---	0.00	29.909 
05:35	45.4	45.4	45.4	91	42.9	0	1	248	0.00	29.909 
05:40	45.2	45.2	45.2	91	42.7	0	1	248	0.00	29.909 
05:45	45.2	45.2	45.2	91	42.7	0	1	248	0.00	29.900 
05:50	45.2	45.2	45.2	92	43.0	0	1	248	0.00	29.900 
05:55	45.2	45.2	45.2	92	43.0	0	1	248	0.00	29.900 
06:00	45.1	45.1	45.1	92	42.9	0	1	248	0.00	29.899 
06:05	45.1	45.1	45.1	92	42.9	0	1	248	0.00	29.899 
06:10	45.1	45.1	45.1	92	42.9	0	0	---	0.00	29.899 
06:15	45.1	45.1	45.1	92	42.9	0	0	---	0.01	29.899 
06:20	44.9	44.9	44.9	92	42.7	0	1	248	0.00	29.899 
06:25	44.9	44.9	44.9	92	42.7	0	1	248	0.00	29.899 
06:30	44.9	44.9	44.9	92	42.7	0	1	248	0.00	29.890 
06:35	44.8	44.8	44.8	92	42.6	0	1	248	0.00	29.890 
06:40	44.8	44.8	44.8	92	42.6	0	0	---	0.00	29.890 
06:45	44.8	44.8	44.8	92	42.6	0	1	248	0.00	29.883 
06:50	44.8	44.8	44.8	92	42.6	0	2	248	0.00	29.883 
06:55	44.8	44.8	44.8	92	42.6	0	1	248	0.00	29.883 
07:00	44.8	44.8	44.8	92	42.6	0	1	248	0.00	29.884 
07:05	44.8	44.8	44.8	92	42.6	0	2	248	0.00	29.884 
07:10	44.8	44.8	44.8	92	42.6	0	1	248	0.00	29.884 
07:15	44.8	44.8	44.8	91	42.3	0	1	248	0.00	29.890 
07:20	44.8	44.8	44.8	91	42.3	0	1	248	0.00	29.890 
07:25	44.9	44.9	44.9	91	42.4	0	1	248	0.00	29.890 
07:30	45.1	45.1	45.1	90	42.3	1	3	248	0.00	29.891 
07:35	45.2	45.2	45.2	89	42.2	0	2	68	0.00	29.891 
07:40	45.4	45.4	45.4	88	42.1	0	2	68	0.00	29.891 
07:45	45.5	45.5	45.5	88	42.2	0	2	68	0.00	29.882 
07:50	45.5	45.5	45.5	87	41.9	0	2	68	0.00	29.882 
07:55	45.7	45.7	45.7	87	42.1	0	2	68	0.00	29.882 
08:00	45.7	45.7	45.7	86	41.8	0	2	90	0.00	29.886 
08:05	45.8	45.8	45.8	85	41.6	0	2	90	0.00	29.886 
08:10	46.0	46.0	46.0	84	41.4	0	2	90	0.00	29.886 
08:15	46.1	46.1	46.1	84	41.5	0	1	90	0.00	29.885 
08:20	46.2	46.2	46.2	83	41.3	0	3	90	0.00	29.885 
08:25	46.5	46.5	46.5	83	41.6	0	3	90	0.00	29.885 
08:30	46.7	46.7	46.7	82	41.5	0	2	68	0.00	29.882 
08:35	46.8	46.8	46.8	82	41.6	0	3	68	0.00	29.882 
08:40	47.0	47.0	47.0	81	41.5	0	2	68	0.00	29.882 
08:45	47.1	47.1	47.1	81	41.6	0	2	68	0.00	29.885 
08:50	47.3	47.3	47.3	81	41.8	0	2	68	0.00	29.885 
08:55	47.4	47.4	47.4	81	41.9	0	2	68	0.00	29.885 
09:00	47.6	47.6	47.6	81	42.1	0	2	68	0.00	29.878 
09:05	47.7	47.7	47.7	81	42.2	0	1	68	0.00	29.878 
09:10	48.0	48.0	48.0	80	42.1	0	3	68	0.00	29.878 
09:15	48.3	48.3	48.3	80	42.4	0	2	68	0.00	29.870 
09:20	48.5	48.5	48.5	80	42.6	1	3	68	0.00	29.870 
09:25	48.8	48.8	48.8	79	42.6	0	2	68	0.00	29.870 
09:30	48.9	48.9	48.9	79	42.7	0	3	68	0.00	29.876 
09:35	49.1	49.1	49.1	78	42.5	1	3	90	0.00	29.876 
09:40	49.1	49.1	49.1	77	42.2	1	3	90	0.00	29.876 
09:45	49.1	49.1	49.1	77	42.2	1	4	90	0.00	29.868 
09:50	49.2	49.2	49.2	77	42.3	1	6	45	0.00	29.868 
09:55	49.2	49.2	49.2	77	42.3	0	6	112	0.00	29.868 
10:00	49.4	49.4	49.4	77	42.5	0	3	112	0.00	29.865 
10:05	49.5	49.5	49.5	77	42.6	0	2	112	0.00	29.865 
10:10	49.6	49.6	49.6	77	42.7	0	3	112	0.00	29.865 
10:15	49.6	49.6	49.6	76	42.3	1	3	112	0.00	29.850 
10:20	49.8	49.8	49.8	76	42.5	1	3	90	0.00	29.850 
10:25	49.8	49.8	49.8	76	42.5	1	4	90	0.00	29.850 
10:30	49.8	49.8	49.8	77	42.9	1	3	90	0.00	29.847 
10:35	49.8	49.8	49.8	78	43.2	0	3	90	0.00	29.847 
10:40	49.9	49.9	49.9	78	43.3	1	3	90	0.00	29.847 
10:45	50.1	50.1	50.1	78	43.5	1	2	90	0.00	29.846 
10:50	50.1	50.1	50.1	78	43.5	0	3	90	0.00	29.846 
10:55	50.2	50.2	50.2	78	43.6	0	3	90	0.00	29.846 
11:00	50.2	50.2	50.2	77	43.3	1	3	90	0.00	29.826 
11:05	50.4	50.4	50.4	77	43.5	1	4	90	0.00	29.826 
11:10	50.5	50.5	50.5	77	43.6	0	3	90	0.00	29.826 
11:15	50.7	50.7	50.7	76	43.4	1	3	90	0.00	29.815 
11:20	51.0	51.0	51.0	76	43.7	0	3	90	0.00	29.815 
11:25	51.1	51.1	51.1	76	43.8	1	4	90	0.00	29.815 
11:30	51.4	51.4	51.4	75	43.7	1	7	90	0.00	29.805 
11:35	51.6	51.6	51.6	75	43.9	0	2	90	0.00	29.805 
11:40	51.7	51.7	51.7	74	43.7	1	4	90	0.00	29.805 
11:45	51.9	51.9	51.9	74	43.9	1	4	112	0.00	29.800 
11:50	52.2	52.2	52.2	74	44.2	1	4	112	0.00	29.800 
11:55	52.5	52.5	52.5	74	44.5	1	3	112	0.00	29.800 
12:00	52.9	52.9	52.9	74	44.8	1	4	112	0.00	29.781 
12:05	53.3	53.3	53.3	74	45.2	1	4	90	0.00	29.781 
12:10	54.1	54.1	54.1	72	45.3	1	5	90	0.00	29.781 
12:15	54.7	54.7	54.7	72	45.9	1	3	90	0.00	29.765 
12:20	55.1	55.1	55.1	70	45.5	2	7	90	0.00	29.765 
12:25	55.3	55.3	55.3	71	46.1	1	4	90	0.00	29.765 
12:30	55.6	55.6	55.6	71	46.3	1	4	90	0.00	29.740 
12:35	55.7	55.7	55.7	70	46.1	1	4	90	0.00	29.740 
12:40	55.7	55.7	55.7	71	46.4	1	3	90	0.00	29.740 
12:45	55.7	55.7	55.7	71	46.4	1	4	90	0.00	29.735 
12:50	56.0	56.0	56.0	72	47.1	1	4	90	0.00	29.735 
12:55	56.0	56.0	56.0	71	46.7	1	4	112	0.00	29.735 
13:00	55.9	55.9	55.9	71	46.6	1	4	112	0.00	29.724 
13:05	55.9	55.9	55.9	72	47.0	0	2	112	0.00	29.724 
13:10	55.7	55.7	55.7	73	47.2	1	5	112	0.00	29.724 
13:15	55.7	55.7	55.7	73	47.2	1	5	112	0.00	29.708 
13:20	55.7	55.7	55.7	73	47.2	1	3	90	0.00	29.708 
13:25	55.7	55.7	55.7	74	47.5	1	4	112	0.00	29.708 
13:30	55.7	55.7	55.7	74	47.5	1	3	112	0.00	29.697 
13:35	55.7	55.7	55.7	74	47.5	0	2	90	0.00	29.697 
13:40	55.7	55.7	55.7	74	47.5	0	3	90	0.00	29.697 
13:45	55.7	55.7	55.7	75	47.9	1	4	90	0.00	29.683 
13:50	55.7	55.7	55.7	75	47.9	0	2	90	0.00	29.683 
13:55	55.6	55.6	55.6	75	47.8	0	2	135	0.00	29.683 
14:00	55.6	55.6	55.6	77	48.5	0	3	135	0.00	29.671 
14:05	55.4	55.4	55.4	78	48.7	0	2	158	0.00	29.671 
14:10	55.3	55.3	55.3	78	48.6	0	2	158	0.00	29.671 
14:15	55.3	55.3	55.3	79	48.9	0	3	158	0.00	29.656 
14:20	55.1	55.1	55.1	79	48.7	0	2	158	0.00	29.656 
14:25	55.1	55.1	55.1	79	48.7	0	1	158	0.00	29.656 
14:30	55.1	55.1	55.1	80	49.0	0	0	---	0.00	29.645 
14:35	55.1	55.1	55.1	80	49.0	0	2	158	0.00	29.645 
14:40	55.1	55.1	55.1	81	49.4	0	1	158	0.00	29.645 
14:45	55.1	55.1	55.1	81	49.4	0	1	158	0.00	29.627 
14:50	55.3	55.3	55.3	81	49.6	1	4	135	0.00	29.627 
14:55	55.3	55.3	55.3	82	49.9	2	4	112	0.00	29.627 
15:00	55.1	55.1	55.1	82	49.7	1	4	112	0.00	29.615 
15:05	55.1	55.1	55.1	83	50.0	0	1	112	0.00	29.615 
15:10	55.0	55.0	55.0	82	49.6	0	3	112	0.00	29.615 
15:15	54.7	54.7	54.7	81	49.0	1	3	135	0.00	29.609 
15:20	54.5	54.5	54.5	81	48.8	0	2	112	0.00	29.609 
15:25	54.2	54.2	54.2	82	48.8	0	4	112	0.00	29.609 
15:30	54.1	54.1	54.1	83	49.1	1	3	90	0.01	29.611 
15:35	53.9	53.9	53.9	84	49.2	1	3	135	0.01	29.611 
15:40	53.6	53.6	53.6	86	49.5	1	5	112	0.02	29.611 
15:45	53.5	53.5	53.5	88	50.0	1	2	112	0.01	29.604 
15:50	53.3	53.3	53.3	89	50.1	0	3	112	0.02	29.604 
15:55	53.2	53.2	53.2	89	50.0	0	2	68	0.02	29.604 
16:00	53.1	53.1	53.1	90	50.2	0	2	68	0.02	29.595 
16:05	52.9	52.9	52.9	91	50.3	0	2	68	0.02	29.595 
16:10	52.8	52.8	52.8	91	50.2	0	2	68	0.02	29.595 
16:15	52.6	52.6	52.6	91	50.0	0	3	90	0.02	29.586 
16:20	52.5	52.5	52.5	92	50.2	0	2	90	0.01	29.586 
16:25	52.5	52.5	52.5	92	50.2	1	3	90	0.01	29.586 
16:30	52.3	52.3	52.3	92	50.0	1	4	90	0.01	29.567 
16:35	52.2	52.2	52.2	92	49.9	1	3	90	0.02	29.567 
16:40	52.0	52.0	52.0	93	50.0	1	4	90	0.01	29.567 
16:45	52.0	52.0	52.0	93	50.0	1	4	90	0.02	29.558 
16:50	51.9	51.9	51.9	93	49.9	1	5	90	0.01	29.558 
16:55	51.7	51.7	51.7	93	49.7	1	3	90	0.01	29.558 
17:00	51.7	51.7	51.7	93	49.7	1	4	90	0.01	29.545 
17:05	51.6	51.6	51.6	94	49.9	1	3	90	0.01	29.545 
17:10	51.6	51.6	51.6	94	49.9	1	4	90	0.00	29.545 
17:15	51.6	51.6	51.6	94	49.9	2	4	90	0.02	29.529 
17:20	51.6	51.6	51.6	94	49.9	2	4	90	0.01	29.529 
17:25	51.4	51.4	51.4	94	49.7	1	3	90	0.01	29.529 
17:30	51.4	51.4	51.4	94	49.7	2	4	90	0.01	29.514 
17:35	51.3	51.3	51.3	94	49.6	2	7	68	0.01	29.514 
17:40	51.3	51.3	51.3	94	49.6	2	5	90	0.01	29.514 
17:45	51.1	51.1	51.1	94	49.4	3	5	90	0.00	29.499 
17:50	51.1	51.1	51.1	94	49.4	2	5	90	0.02	29.499 
17:55	51.0	51.0	51.0	94	49.3	1	4	90	0.00	29.499 
18:00	50.8	50.8	50.8	94	49.1	1	3	90	0.00	29.482 
18:05	50.7	50.7	50.7	94	49.0	2	5	90	0.01	29.482 
18:10	50.5	50.5	50.5	94	48.8	2	7	90	0.00	29.482 
18:15	50.5	50.5	50.5	94	48.8	2	9	90	0.00	29.468 
18:20	50.4	50.4	50.4	94	48.7	2	7	90	0.00	29.468 
18:25	50.2	50.2	50.2	94	48.5	1	3	90	0.01	29.468 
18:30	50.1	50.1	50.1	94	48.4	1	5	90	0.00	29.458 
18:35	50.1	50.1	50.1	94	48.4	1	4	90	0.01	29.458 
18:40	49.9	49.9	49.9	94	48.2	2	5	90	0.00	29.458 
18:45	49.8	49.8	49.8	94	48.1	2	5	90	0.01	29.446 
18:50	49.6	49.6	49.6	94	47.9	1	3	112	0.01	29.446 
18:55	49.6	49.6	49.6	94	47.9	1	4	112	0.01	29.446 
19:00	49.5	49.5	49.5	94	47.8	2	4	68	0.02	29.432 
19:05	49.4	49.4	49.4	94	47.7	2	4	90	0.02	29.432 
19:10	49.4	49.4	49.4	94	47.7	2	4	90	0.01	29.432 
19:15	49.4	49.4	49.4	94	47.7	1	4	90	0.00	29.411 
19:20	49.4	49.4	49.4	94	47.7	2	5	90	0.01	29.411 
19:25	49.4	49.4	49.4	94	47.7	2	6	90	0.01	29.411 
19:30	49.4	49.4	49.4	94	47.7	1	4	68	0.01	29.406 
19:35	49.4	49.4	49.4	94	47.7	2	6	68	0.01	29.406 
19:40	49.4	49.4	49.4	94	47.7	2	6	112	0.02	29.406 
19:45	49.2	49.2	49.2	94	47.5	3	8	112	0.02	29.394 
19:50	49.2	49.2	49.2	94	47.5	2	6	112	0.02	29.394 
19:55	49.2	49.2	49.2	94	47.5	2	5	112	0.02	29.394 
20:00	49.1	49.1	49.1	94	47.4	3	6	112	0.03	29.381 
20:05	49.1	49.1	49.1	94	47.4	2	5	112	0.02	29.381 
20:10	49.1	49.1	49.1	94	47.4	1	4	90	0.01	29.381 
20:15	48.9	48.9	48.9	94	47.2	1	3	45	0.02	29.366 
20:20	48.9	48.9	48.9	95	47.5	0	2	45	0.01	29.366 
20:25	48.9	48.9	48.9	95	47.5	1	3	45	0.01	29.366 
20:30	48.9	48.9	48.9	95	47.5	1	3	45	0.02	29.348 
20:35	48.9	48.9	48.9	95	47.5	1	2	68	0.01	29.348 
20:40	49.1	49.1	49.1	95	47.7	1	3	68	0.01	29.348 
20:45	49.4	49.4	49.4	95	48.0	1	3	68	0.01	29.326 
20:50	49.6	49.6	49.6	95	48.2	1	4	90	0.02	29.326 
20:55	49.9	49.9	49.9	95	48.5	1	6	90	0.01	29.326 
21:00	50.2	50.2	50.2	95	48.8	1	4	90	0.01	29.312 
21:05	50.4	50.4	50.4	95	49.0	1	3	90	0.01	29.312 
21:10	50.5	50.5	50.5	95	49.1	1	4	90	0.02	29.312 
21:15	50.7	50.7	50.7	96	49.6	1	3	135	0.02	29.283 
21:20	51.0	51.0	51.0	96	49.9	1	3	135	0.03	29.283 
21:25	51.1	51.1	51.1	96	50.0	1	3	135	0.02	29.283 
21:30	51.3	51.3	51.3	96	50.2	0	3	135	0.01	29.266 
21:35	51.4	51.4	51.4	96	50.3	1	4	135	0.02	29.266 
21:40	51.6	51.6	51.6	96	50.5	1	4	112	0.02	29.266 
21:45	51.7	51.7	51.7	96	50.6	0	3	90	0.02	29.250 
21:50	51.9	51.9	51.9	96	50.8	1	3	90	0.01	29.250 
21:55	51.9	51.9	51.9	96	50.8	1	4	90	0.02	29.250 
22:00	52.0	52.0	52.0	96	50.9	1	5	90	0.02	29.232 
22:05	52.0	52.0	52.0	96	50.9	0	3	90	0.02	29.232 
22:10	52.0	52.0	52.0	96	50.9	1	4	90	0.02	29.232 
22:15	52.0	52.0	52.0	96	50.9	1	2	90	0.02	29.213 
22:20	52.0	52.0	52.0	96	50.9	1	3	90	0.01	29.213 
22:25	52.0	52.0	52.0	96	50.9	1	4	90	0.01	29.213 
22:30	52.0	52.0	52.0	96	50.9	1	4	112	0.02	29.195 
22:35	52.2	52.2	52.2	96	51.1	1	4	112	0.02	29.195 
22:40	52.2	52.2	52.2	96	51.1	1	4	112	0.02	29.195 
22:45	52.3	52.3	52.3	96	51.2	1	5	22	0.01	29.182 
22:50	52.3	52.3	52.3	96	51.2	1	5	112	0.02	29.182 
22:55	52.5	52.5	52.5	96	51.4	1	4	68	0.01	29.182 
23:00	52.5	52.5	52.5	96	51.4	1	5	45	0.02	29.167 
23:05	52.6	52.6	52.6	96	51.5	1	5	90	0.01	29.167 
23:10	52.6	52.6	52.6	96	51.5	1	5	135	0.00	29.167 
23:15	52.8	52.8	52.8	96	51.7	1	6	0	0.01	29.148 
23:20	52.9	52.9	52.9	96	51.8	1	4	112	0.01	29.148 
23:25	53.1	53.1	53.1	96	52.0	2	7	90	0.00	29.148 
23:30	53.2	53.2	53.2	96	52.1	2	5	90	0.01	29.132 
23:35	53.3	53.3	53.3	96	52.2	1	5	90	0.01	29.132 
23:40	53.5	53.5	53.5	96	52.4	1	7	90	0.01	29.132 
23:45	53.5	53.5	53.5	96	52.4	1	5	90	0.01	29.118 
23:50	53.6	53.6	53.6	96	52.5	2	6	90	0.03	29.118 
23:55	53.6	53.6	53.6	96	52.5	1	4	112	0.01	29.118 

CoCoRaHS
IN-AL-39
A2 Web Hosting
Creative Commons License
GoDaddy
search engine by freefind advanced

loaded 2018-11-15 17:43:26 • last modified 2010-11-18 10:43:29
Privacy PolicyDisclaimer
• wx.awcolley.com is powered by PmWiki v.2002016 •
• all content (unless otherwise noted) © 2018 A W Colley